Capo S. Vito — IIVZ2 — position and weather

sailwx.info

Track history (hours):
 
Tides and Currents Weather Stations Pressure Air Temp Water Temp Dewpoint Dewpoint Depression Visibility Wind Speed Wind Dir Waves Ship Positions

Capo S. Vito

Last reported at 2017-Dec-16 11:00 UTC. Time now 2017-Dec-16 11:18 UTC.
Position N 40°29' E 017°13'.

Length 28 m; draft 5.1 m.

Type: Tug. MMSI: 247297700.

Date/timePositionNaut miles runAvg speedWind from/ knotsBaromVisibWave heightAir tempDewpointWater temp
2017-Dec-16 11:00N 40°29' E 017°13'1 1.1
2017-Dec-16 10:28N 40°29' E 017°12'1 1.8
2017-Dec-16 10:00N 40°28' E 017°13'1 1.4
2017-Dec-16 09:30N 40°27' E 017°13'2 3.1
2017-Dec-16 08:59N 40°27' E 017°15'3 5.3
2017-Dec-16 08:30N 40°29' E 017°13'0 0.0
2017-Dec-16 08:00N 40°29' E 017°13'0 0.0
2017-Dec-16 07:30N 40°29' E 017°13'0 0.0
2017-Dec-16 07:00N 40°29' E 017°13'0 0.0
2017-Dec-16 06:30N 40°29' E 017°13'0 0.0
2017-Dec-16 06:00N 40°29' E 017°13'0 0.0
2017-Dec-16 05:30N 40°29' E 017°13'0 0.0
2017-Dec-16 05:00N 40°29' E 017°13'0 0.0
2017-Dec-16 04:30N 40°29' E 017°13'0 0.0
2017-Dec-16 04:00N 40°29' E 017°13'0 0.0
2017-Dec-16 03:30N 40°29' E 017°13'0 0.0
2017-Dec-16 03:00N 40°29' E 017°13'0 0.0
2017-Dec-16 02:30N 40°29' E 017°13'0 0.0
2017-Dec-16 02:00N 40°29' E 017°13'0 0.0
2017-Dec-16 01:30N 40°29' E 017°13'0 0.0
2017-Dec-16 01:00N 40°29' E 017°13'0 0.0
2017-Dec-16 00:30N 40°29' E 017°13'0 0.0
2017-Dec-16 00:00N 40°29' E 017°13'0 0.0
2017-Dec-15 23:30N 40°29' E 017°13'0 0.0
2017-Dec-15 23:00N 40°29' E 017°13'0 0.0
2017-Dec-15 22:30N 40°29' E 017°13'2 5.0
2017-Dec-15 22:00N 40°27' E 017°15'1 2.0
2017-Dec-15 21:30N 40°27' E 017°14'1 1.9
2017-Dec-15 20:58N 40°27' E 017°15'0 0.8
2017-Dec-15 20:29N 40°27' E 017°14'1 1.6
2017-Dec-15 20:00N 40°27' E 017°14'2 2.7
2017-Dec-15 19:28N 40°29' E 017°13'0 0.0
2017-Dec-15 18:58N 40°29' E 017°13'0 0.0
2017-Dec-15 18:28N 40°29' E 017°13'0 0.0
2017-Dec-15 17:58N 40°29' E 017°13'0 0.0
2017-Dec-15 17:28N 40°29' E 017°13'0 0.0
2017-Dec-15 16:55N 40°29' E 017°13'0 0.0
2017-Dec-15 16:25N 40°29' E 017°13'2 4.4
2017-Dec-15 16:00N 40°28' E 017°11'2 3.8
2017-Dec-15 15:29N 40°30' E 017°09'0 0.8
2017-Dec-15 14:59N 40°30' E 017°08'0 0.5
2017-Dec-15 14:23N 40°29' E 017°09'2 6.6
2017-Dec-15 14:00N 40°28' E 017°12'1 2.4
2017-Dec-15 13:27N 40°29' E 017°13'0 0.0
2017-Dec-15 13:00N 40°29' E 017°13'0 0.4
2017-Dec-15 12:30N 40°29' E 017°13'0 0.3
2017-Dec-15 11:57N 40°29' E 017°13'0 0.0
2017-Dec-15 11:27N 40°29' E 017°13'0 0.0
2017-Dec-15 10:57N 40°29' E 017°13'0 0.0
2017-Dec-15 10:30N 40°29' E 017°13'0 0.0
2017-Dec-15 09:57N 40°29' E 017°13'0 0.0
2017-Dec-15 09:27N 40°29' E 017°13'0 0.0
2017-Dec-15 08:57N 40°29' E 017°13'1 1.4
2017-Dec-15 08:28N 40°29' E 017°12'0 0.1
2017-Dec-15 07:58N 40°29' E 017°12'1 1.5
2017-Dec-15 07:30N 40°28' E 017°13'1 1.2
2017-Dec-15 06:59N 40°28' E 017°13'0 0.3
2017-Dec-15 06:30N 40°27' E 017°13'1 2.3
2017-Dec-15 05:57N 40°29' E 017°13'0 0.0
2017-Dec-15 05:30N 40°29' E 017°13'0 0.0
2017-Dec-15 05:00N 40°29' E 017°13'0 0.0
2017-Dec-15 04:30N 40°29' E 017°13'0 0.0
2017-Dec-15 04:00N 40°29' E 017°13'0 0.0
2017-Dec-15 02:27N 40°29' E 017°13'0 0.0
2017-Dec-15 01:00N 40°29' E 017°13'0 0.0
2017-Dec-15 00:30N 40°29' E 017°13'0 0.0
2017-Dec-14 18:28N 40°29' E 017°13'3 5.2
2017-Dec-14 17:58N 40°27' E 017°15'1 2.0
2017-Dec-14 17:30N 40°27' E 017°14'1 1.8
2017-Dec-14 17:00N 40°27' E 017°15'0 0.5
2017-Dec-14 16:30N 40°27' E 017°15'2 3.2
2017-Dec-14 16:00N 40°28' E 017°14'1 0.7
2017-Dec-14 14:57N 40°29' E 017°13'2 3.5
2017-Dec-14 14:30N 40°27' E 017°13'0 0.2
2017-Dec-14 14:00N 40°27' E 017°12'1 1.9
2017-Dec-14 13:30N 40°28' E 017°13'1 1.4
2017-Dec-14 12:58N 40°29' E 017°13'0 0.0
2017-Dec-14 12:28N 40°29' E 017°13'0 0.5
2017-Dec-14 12:00N 40°29' E 017°13'0 0.0
2017-Dec-14 11:30N 40°29' E 017°13'0 0.0
2017-Dec-14 11:00N 40°29' E 017°13'0 0.1
2017-Dec-14 10:30N 40°29' E 017°13'0 0.4
2017-Dec-14 09:58N 40°29' E 017°13'0 0.0
2017-Dec-14 09:28N 40°29' E 017°13'0 0.0
2017-Dec-14 08:58N 40°29' E 017°13'0 0.5
2017-Dec-14 08:28N 40°29' E 017°13'0 0.6
2017-Dec-14 07:58N 40°28' E 017°13'1 1.2
2017-Dec-14 07:29N 40°28' E 017°14'1 1.5
2017-Dec-14 06:56N 40°29' E 017°13'0 0.4
2017-Dec-14 06:27N 40°29' E 017°13'0 0.0
2017-Dec-14 06:00N 40°29' E 017°13'0 0.0
2017-Dec-14 05:27N 40°29' E 017°13'0 0.0
2017-Dec-14 05:00N 40°29' E 017°13'0 0.0
2017-Dec-14 04:30N 40°29' E 017°13'0 0.0
2017-Dec-14 04:00N 40°29' E 017°13'0 0.0
2017-Dec-14 03:30N 40°29' E 017°13'0 0.0
2017-Dec-14 03:00N 40°29' E 017°13'0 0.0
2017-Dec-14 02:30N 40°29' E 017°13'0 0.0
2017-Dec-14 01:57N 40°29' E 017°13'0 0.0
2017-Dec-14 01:30N 40°29' E 017°13'0 0.0
2017-Dec-14 01:00N 40°29' E 017°13'0 0.0
2017-Dec-14 00:30N 40°29' E 017°13'0 0.0
2017-Dec-14 00:00N 40°29' E 017°13'0 0.0
2017-Dec-13 23:30N 40°29' E 017°13'0 0.0
2017-Dec-13 23:00N 40°29' E 017°13'0 0.0
2017-Dec-13 22:30N 40°29' E 017°13'0 0.0
2017-Dec-13 22:00N 40°29' E 017°13'0 0.0
2017-Dec-13 21:30N 40°29' E 017°13'0 0.0
2017-Dec-13 21:00N 40°29' E 017°13'0 0.0
2017-Dec-13 20:30N 40°29' E 017°13'0 0.0
2017-Dec-13 20:00N 40°29' E 017°13'0 0.0
2017-Dec-13 19:30N 40°29' E 017°13'0 0.0
2017-Dec-13 19:00N 40°29' E 017°13'0 0.0
2017-Dec-13 18:30N 40°29' E 017°13'0 0.0
2017-Dec-13 18:00N 40°29' E 017°13'0 0.0
2017-Dec-13 17:27N 40°29' E 017°13'0 0.0
2017-Dec-13 17:00N 40°29' E 017°13'0 0.0
2017-Dec-13 16:27N 40°29' E 017°13'0 0.0
2017-Dec-13 15:59N 40°29' E 017°13'0 0.0
2017-Dec-13 15:29N 40°29' E 017°13'0 0.0
2017-Dec-13 14:59N 40°29' E 017°13'2 3.3
2017-Dec-13 14:30N 40°27' E 017°13'0 0.3
2017-Dec-13 13:55N 40°27' E 017°12'0 0.0
2017-Dec-13 13:25N 40°27' E 017°12'0 0.9
2017-Dec-13 12:55N 40°27' E 017°12'1 3.6
2017-Dec-13 12:30N 40°28' E 017°13'1 1.1
2017-Dec-13 11:59N 40°29' E 017°13'0 0.0
2017-Dec-13 11:26N 40°29' E 017°13'0 0.0
2017-Dec-13 10:56N 40°29' E 017°13'1 2.5
2017-Dec-13 10:30N 40°28' E 017°12'1 1.0
2017-Dec-13 09:56N 40°28' E 017°12'1 1.5
2017-Dec-13 09:28N 40°28' E 017°12'1 1.6
2017-Dec-13 09:00N 40°28' E 017°12'1 1.7
2017-Dec-13 08:30N 40°28' E 017°12'1 1.7
2017-Dec-13 08:00N 40°28' E 017°13'1 1.7
2017-Dec-13 07:25N 40°29' E 017°13'0 0.0
2017-Dec-13 06:58N 40°29' E 017°13'0 0.0
2017-Dec-13 06:28N 40°29' E 017°13'0 0.0
2017-Dec-13 05:58N 40°29' E 017°13'0 0.0
2017-Dec-13 05:28N 40°29' E 017°13'0 0.0
2017-Dec-13 04:58N 40°29' E 017°13'0 0.0
2017-Dec-13 04:28N 40°29' E 017°13'0 0.0
2017-Dec-13 03:58N 40°29' E 017°13'0 0.0
2017-Dec-13 03:28N 40°29' E 017°13'0 0.0
2017-Dec-13 02:58N 40°29' E 017°13'0 0.0
2017-Dec-13 02:28N 40°29' E 017°13'0 0.0
2017-Dec-13 01:58N 40°29' E 017°13'0 0.0
2017-Dec-13 01:28N 40°29' E 017°13'0 0.0
2017-Dec-13 00:58N 40°29' E 017°13'0 0.0
2017-Dec-13 00:28N 40°29' E 017°13'0 0.0
2017-Dec-12 23:58N 40°29' E 017°13'0 0.0
2017-Dec-12 23:28N 40°29' E 017°13'0 0.0
2017-Dec-12 22:58N 40°29' E 017°13'0 0.0
2017-Dec-12 22:28N 40°29' E 017°13'0 0.0
2017-Dec-12 21:58N 40°29' E 017°13'0 0.0
2017-Dec-12 21:28N 40°29' E 017°13'0 0.0
2017-Dec-12 20:58N 40°29' E 017°13'0 0.0
2017-Dec-12 20:28N 40°29' E 017°13'0 0.0
2017-Dec-12 19:58N 40°29' E 017°13'0 0.0
2017-Dec-12 19:28N 40°29' E 017°13'0 0.0
2017-Dec-12 18:58N 40°29' E 017°13'0 0.0
2017-Dec-12 18:25N 40°29' E 017°13'0 0.0
2017-Dec-12 17:58N 40°29' E 017°13'0 0.0
2017-Dec-12 17:28N 40°29' E 017°13'0 0.0
2017-Dec-12 16:55N 40°29' E 017°13'0 0.0
2017-Dec-12 16:25N 40°29' E 017°13'0 0.0
2017-Dec-12 15:59N 40°29' E 017°13'0 0.5
2017-Dec-12 15:25N 40°28' E 017°13'1 1.7
2017-Dec-12 15:01N 40°28' E 017°14'0 0.2
2017-Dec-12 14:30N 40°28' E 017°14'0 0.7
2017-Dec-12 14:00N 40°28' E 017°13'0 0.9
2017-Dec-12 13:27N 40°28' E 017°13'0 0.5
2017-Dec-12 12:57N 40°29' E 017°13'0 0.0
2017-Dec-12 12:27N 40°29' E 017°13'0 0.0
2017-Dec-12 11:57N 40°29' E 017°13'0 0.0
2017-Dec-12 11:27N 40°29' E 017°13'0 0.0
2017-Dec-12 10:57N 40°29' E 017°13'0 0.0
2017-Dec-12 10:27N 40°29' E 017°13'0 0.0
2017-Dec-12 09:57N 40°29' E 017°13'0 0.0
2017-Dec-12 09:27N 40°29' E 017°13'0 0.0
2017-Dec-12 08:57N 40°29' E 017°13'0 0.0
2017-Dec-12 08:30N 40°29' E 017°13'3 4.5
2017-Dec-12 07:55N 40°27' E 017°15'1 2.8
2017-Dec-12 07:30N 40°27' E 017°14'0 0.3
2017-Dec-12 07:00N 40°27' E 017°14'0 0.6
2017-Dec-12 06:30N 40°27' E 017°14'2 3.9
2017-Dec-12 06:00N 40°29' E 017°13'0 0.0
2017-Dec-12 05:30N 40°29' E 017°13'0 0.0
2017-Dec-12 04:57N 40°29' E 017°13'0 0.0
2017-Dec-12 04:30N 40°29' E 017°13'0 0.0
2017-Dec-12 04:00N 40°29' E 017°13'0 0.0
2017-Dec-12 03:30N 40°29' E 017°13'0 0.0
2017-Dec-12 03:00N 40°29' E 017°13'0 0.0
2017-Dec-12 02:30N 40°29' E 017°13'0 0.0
2017-Dec-12 02:00N 40°29' E 017°13'0 0.0
2017-Dec-12 01:30N 40°29' E 017°13'0 0.0
2017-Dec-12 01:00N 40°29' E 017°13'0 0.0
2017-Dec-12 00:30N 40°29' E 017°13'0 0.0
2017-Dec-12 00:00N 40°29' E 017°13'0 0.0
2017-Dec-11 23:30N 40°29' E 017°13'0 0.0
2017-Dec-11 22:57N 40°29' E 017°13'0 0.0
2017-Dec-11 22:27N 40°29' E 017°13'0 0.0
2017-Dec-11 22:00N 40°29' E 017°13'0 0.0
2017-Dec-11 21:30N 40°29' E 017°13'0 0.0
2017-Dec-11 21:00N 40°29' E 017°13'0 0.0
2017-Dec-11 20:27N 40°29' E 017°13'0 0.0
2017-Dec-11 20:00N 40°29' E 017°13'0 0.0
2017-Dec-11 19:30N 40°29' E 017°13'0 0.0
2017-Dec-11 19:00N 40°29' E 017°13'0 0.0
2017-Dec-11 18:30N 40°29' E 017°13'0 0.0
2017-Dec-11 18:00N 40°29' E 017°13'0 0.0
2017-Dec-11 17:30N 40°29' E 017°13'0 0.0
2017-Dec-11 17:00N 40°29' E 017°13'0 0.0
2017-Dec-11 16:30N 40°29' E 017°13'0 0.0
2017-Dec-11 16:00N 40°29' E 017°13'2 4.9
2017-Dec-11 15:30N 40°29' E 017°10'1 2.6
2017-Dec-11 15:00N 40°30' E 017°10'3 6.3
2017-Dec-11 14:30N 40°28' E 017°13'1 1.9
2017-Dec-11 13:58N 40°29' E 017°13'0 0.0
2017-Dec-11 13:25N 40°29' E 017°13'0 1.1
2017-Dec-11 13:00N 40°28' E 017°13'4 7.1
2017-Dec-11 12:30N 40°30' E 017°09'0 0.5
2017-Dec-11 11:58N 40°30' E 017°09'0 0.3
2017-Dec-11 11:29N 40°30' E 017°09'3 7.1
2017-Dec-11 11:00N 40°28' E 017°13'1 1.3
2017-Dec-11 10:28N 40°29' E 017°13'0 0.0
2017-Dec-11 09:58N 40°29' E 017°13'0 0.0
2017-Dec-11 09:28N 40°29' E 017°13'0 0.0
2017-Dec-11 08:58N 40°29' E 017°13'0 0.0
2017-Dec-11 08:28N 40°29' E 017°13'0 0.0
2017-Dec-11 07:58N 40°29' E 017°13'0 0.0
2017-Dec-11 07:28N 40°29' E 017°13'0 0.0
2017-Dec-11 06:58N 40°29' E 017°13'0 0.0
2017-Dec-11 06:28N 40°29' E 017°13'0 0.0
2017-Dec-11 05:58N 40°29' E 017°13'0 0.0
2017-Dec-11 05:28N 40°29' E 017°13'0 0.0
2017-Dec-11 04:58N 40°29' E 017°13'0 0.0
2017-Dec-11 04:28N 40°29' E 017°13'0 0.0
2017-Dec-11 03:58N 40°29' E 017°13'0 0.0
2017-Dec-11 03:28N 40°29' E 017°13'0 0.0
2017-Dec-11 02:58N 40°29' E 017°13'0 0.0
2017-Dec-11 02:28N 40°29' E 017°13'0 0.0
2017-Dec-11 01:58N 40°29' E 017°13'0 0.0
2017-Dec-11 01:28N 40°29' E 017°13'0 0.0
2017-Dec-11 00:58N 40°29' E 017°13'0 0.0
2017-Dec-11 00:28N 40°29' E 017°13'0 0.0
2017-Dec-10 23:58N 40°29' E 017°13'0 0.0
2017-Dec-10 23:28N 40°29' E 017°13'0 0.0
2017-Dec-10 22:58N 40°29' E 017°13'0 0.0
2017-Dec-10 22:28N 40°29' E 017°13'0 0.0
2017-Dec-10 21:58N 40°29' E 017°13'0 0.0
2017-Dec-10 21:28N 40°29' E 017°13'0 0.0
2017-Dec-10 20:58N 40°29' E 017°13'0 0.0
2017-Dec-10 20:28N 40°29' E 017°13'0 0.0
2017-Dec-10 19:58N 40°29' E 017°13'0 0.0
2017-Dec-10 19:28N 40°29' E 017°13'0 0.0
2017-Dec-10 18:58N 40°29' E 017°13'0 0.0
2017-Dec-10 18:28N 40°29' E 017°13'0 0.0
2017-Dec-10 17:58N 40°29' E 017°13'0 0.0
2017-Dec-10 17:28N 40°29' E 017°13'0 0.0
2017-Dec-10 16:58N 40°29' E 017°13'0 0.0
2017-Dec-10 16:28N 40°29' E 017°13'0 0.0
2017-Dec-10 15:58N 40°29' E 017°13'0 0.0
2017-Dec-10 15:28N 40°29' E 017°13'0 0.0
2017-Dec-10 14:58N 40°29' E 017°13'0 0.0
2017-Dec-10 14:28N 40°29' E 017°13'0 0.0
2017-Dec-10 13:58N 40°29' E 017°13'0 0.0
2017-Dec-10 13:28N 40°29' E 017°13'0 0.0
2017-Dec-10 12:58N 40°29' E 017°13'0 0.0
2017-Dec-10 12:28N 40°29' E 017°13'0 0.0
2017-Dec-10 11:58N 40°29' E 017°13'0 0.0
2017-Dec-10 11:28N 40°29' E 017°13'0 0.0
2017-Dec-10 10:58N 40°29' E 017°13'0 0.0
2017-Dec-10 10:28N 40°29' E 017°13'0 0.0
2017-Dec-10 09:58N 40°29' E 017°13'0 0.0
2017-Dec-10 09:28N 40°29' E 017°13'0 0.0
2017-Dec-10 08:58N 40°29' E 017°13'0 0.0
2017-Dec-10 08:28N 40°29' E 017°13'0 0.0
2017-Dec-10 07:58N 40°29' E 017°13'0 0.0
2017-Dec-10 07:28N 40°29' E 017°13'0 0.0
2017-Dec-10 06:58N 40°29' E 017°13'0 0.0
2017-Dec-10 06:28N 40°29' E 017°13'0 0.0
2017-Dec-10 05:58N 40°29' E 017°13'0 0.0
2017-Dec-10 05:28N 40°29' E 017°13'0 0.0
2017-Dec-10 04:58N 40°29' E 017°13'0 0.0
2017-Dec-10 04:28N 40°29' E 017°13'0 0.0
2017-Dec-10 03:58N 40°29' E 017°13'0 0.0
2017-Dec-10 03:28N 40°29' E 017°13'0 0.0
2017-Dec-10 02:58N 40°29' E 017°13'0 0.0
2017-Dec-10 02:28N 40°29' E 017°13'0 0.0
2017-Dec-10 01:58N 40°29' E 017°13'0 0.0
2017-Dec-10 01:25N 40°29' E 017°13'0 0.0
2017-Dec-10 00:58N 40°29' E 017°13'0 0.0
2017-Dec-10 00:28N 40°29' E 017°13'0 0.0
2017-Dec-09 23:58N 40°29' E 017°13'0 0.0
2017-Dec-09 23:28N 40°29' E 017°13'0 0.0
2017-Dec-09 22:58N 40°29' E 017°13'0 0.0
2017-Dec-09 22:28N 40°29' E 017°13'0 0.0
2017-Dec-09 21:58N 40°29' E 017°13'0 0.0
2017-Dec-09 21:28N 40°29' E 017°13'0 0.0
2017-Dec-09 20:58N 40°29' E 017°13'0 0.0
2017-Dec-09 20:28N 40°29' E 017°13'0 0.0
2017-Dec-09 19:58N 40°29' E 017°13'0 0.0
2017-Dec-09 19:28N 40°29' E 017°13'0 0.0
2017-Dec-09 18:58N 40°29' E 017°13'0 0.0
2017-Dec-09 18:28N 40°29' E 017°13'0 0.0
2017-Dec-09 17:58N 40°29' E 017°13'0 0.0
2017-Dec-09 17:28N 40°29' E 017°13'0 0.0
2017-Dec-09 16:58N 40°29' E 017°13'0 0.0
2017-Dec-09 16:28N 40°29' E 017°13'0 0.0
2017-Dec-09 15:58N 40°29' E 017°13'0 0.0
2017-Dec-09 15:25N 40°29' E 017°13'0 0.0
2017-Dec-09 14:58N 40°29' E 017°13'0 0.0
2017-Dec-09 14:28N 40°29' E 017°13'0 0.0
2017-Dec-09 13:58N 40°29' E 017°13'0 0.0
2017-Dec-09 13:28N 40°29' E 017°13'0 0.0
2017-Dec-09 12:58N 40°29' E 017°13'0 0.0
2017-Dec-09 12:28N 40°29' E 017°13'0 0.0
2017-Dec-09 11:58N 40°29' E 017°13'0 0.8
2017-Dec-09 11:27N 40°28' E 017°13'1 3.2
2017-Dec-09 11:00N 40°27' E 017°12'1 1.4
2017-Dec-09 10:29N 40°27' E 017°11'2 3.5
2017-Dec-09 09:58N 40°28' E 017°13'0 0.9
2017-Dec-09 09:30N 40°29' E 017°13'0 0.0
2017-Dec-09 09:00N 40°29' E 017°13'0 0.0
2017-Dec-09 08:30N 40°29' E 017°13'0 0.0
2017-Dec-09 08:00N 40°29' E 017°13'0 0.0
2017-Dec-09 07:30N 40°29' E 017°13'0 0.0
2017-Dec-09 07:00N 40°29' E 017°13'0 0.0
2017-Dec-09 06:30N 40°29' E 017°13'0 0.0
2017-Dec-09 05:59N 40°29' E 017°13'0 0.0
2017-Dec-09 05:29N 40°29' E 017°13'0 0.0
2017-Dec-09 04:59N 40°29' E 017°13'0 0.0
2017-Dec-09 04:29N 40°29' E 017°13'0 0.0
2017-Dec-09 03:59N 40°29' E 017°13'0 0.0
2017-Dec-09 03:29N 40°29' E 017°13'0 0.0
2017-Dec-09 02:59N 40°29' E 017°13'0 0.0
2017-Dec-09 02:26N 40°29' E 017°13'0 0.0
2017-Dec-09 01:59N 40°29' E 017°13'0 0.0
2017-Dec-09 01:29N 40°29' E 017°13'0 0.0
2017-Dec-09 00:59N 40°29' E 017°13'0 0.0
2017-Dec-09 00:29N 40°29' E 017°13'0 0.0
2017-Dec-08 23:59N 40°29' E 017°13'0 0.0
2017-Dec-08 23:29N 40°29' E 017°13'0 0.0
2017-Dec-08 22:59N 40°29' E 017°13'1 2.7
2017-Dec-08 22:29N 40°28' E 017°12'0 0.2
2017-Dec-08 22:00N 40°28' E 017°12'0 0.0
2017-Dec-08 21:28N 40°28' E 017°12'0 0.0
2017-Dec-08 20:58N 40°28' E 017°12'0 0.1
2017-Dec-08 20:29N 40°28' E 017°12'1 2.0
2017-Dec-08 19:51N 40°29' E 017°13'0 0.0
2017-Dec-08 19:30N 40°29' E 017°13'0 0.0
2017-Dec-08 19:00N 40°29' E 017°13'0 0.0
2017-Dec-08 18:30N 40°29' E 017°13'0 0.0
2017-Dec-08 18:00N 40°29' E 017°13'0 0.0
2017-Dec-08 17:27N 40°29' E 017°13'0 0.0
2017-Dec-08 16:54N 40°29' E 017°13'0 0.0
2017-Dec-08 16:30N 40°29' E 017°13'0 0.0
2017-Dec-08 15:57N 40°29' E 017°13'0 0.0
2017-Dec-08 15:27N 40°29' E 017°13'0 0.0
2017-Dec-08 14:57N 40°29' E 017°13'0 0.0
2017-Dec-08 14:27N 40°29' E 017°13'0 0.0
2017-Dec-08 14:00N 40°29' E 017°13'0 0.0
2017-Dec-08 13:30N 40°29' E 017°13'0 0.0
2017-Dec-08 13:00N 40°29' E 017°13'0 0.0
2017-Dec-08 12:30N 40°29' E 017°13'0 0.0
2017-Dec-08 11:57N 40°29' E 017°13'0 0.0
2017-Dec-08 11:30N 40°29' E 017°13'0 0.0
2017-Dec-08 11:00N 40°29' E 017°13'0 0.0
2017-Dec-08 10:30N 40°29' E 017°13'1 2.5
2017-Dec-08 10:00N 40°28' E 017°12'1 1.0
2017-Dec-08 09:29N 40°28' E 017°12'2 3.6
2017-Dec-08 09:00N 40°27' E 017°13'2 3.1
2017-Dec-08 08:30N 40°27' E 017°15'1 2.0
2017-Dec-08 08:00N 40°27' E 017°14'1 1.1
2017-Dec-08 07:25N 40°27' E 017°13'1 3.6
2017-Dec-08 07:00N 40°29' E 017°13'0 0.0
2017-Dec-08 06:30N 40°29' E 017°13'0 0.0
2017-Dec-08 06:00N 40°29' E 017°13'0 0.0
2017-Dec-08 05:30N 40°29' E 017°13'0 0.0
2017-Dec-08 05:00N 40°29' E 017°13'0 0.0
2017-Dec-08 04:30N 40°29' E 017°13'0 0.0
2017-Dec-08 04:00N 40°29' E 017°13'0 0.0
2017-Dec-08 03:30N 40°29' E 017°13'0 0.0
2017-Dec-08 03:00N 40°29' E 017°13'0 0.0
2017-Dec-08 02:30N 40°29' E 017°13'0 0.0
2017-Dec-08 02:00N 40°29' E 017°13'0 0.0
2017-Dec-08 01:30N 40°29' E 017°13'0 0.0
2017-Dec-08 01:00N 40°29' E 017°13'0 0.0
2017-Dec-08 00:30N 40°29' E 017°13'0 0.7
2017-Dec-08 00:00N 40°28' E 017°13'3 5.8
2017-Dec-07 23:26N 40°30' E 017°10'0 0.2
2017-Dec-07 23:00N 40°30' E 017°09'1 1.6
2017-Dec-07 22:30N 40°29' E 017°10'3 5.2
2017-Dec-07 21:58N 40°29' E 017°13'0 0.0
2017-Dec-07 21:28N 40°29' E 017°13'0 0.0
2017-Dec-07 20:58N 40°29' E 017°13'0 0.0
2017-Dec-07 20:28N 40°29' E 017°13'0 0.0
2017-Dec-07 19:59N 40°29' E 017°13'1 2.4
2017-Dec-07 19:25N 40°28' E 017°12'1 2.5
2017-Dec-07 19:00N 40°27' E 017°12'0 0.6
2017-Dec-07 18:31N 40°28' E 017°12'2 3.1
2017-Dec-07 18:01N 40°27' E 017°14'1 1.8
2017-Dec-07 17:29N 40°26' E 017°15'1 1.3
2017-Dec-07 17:00N 40°27' E 017°14'0 0.5
2017-Dec-07 16:30N 40°27' E 017°14'2 3.8
2017-Dec-07 16:00N 40°28' E 017°12'0 0.4
2017-Dec-07 15:30N 40°28' E 017°12'1 2.3
2017-Dec-07 15:00N 40°29' E 017°10'1 1.5
2017-Dec-07 14:15N 40°29' E 017°09'1 2.2
2017-Dec-07 14:00N 40°30' E 017°10'1 2.2
2017-Dec-07 13:30N 40°29' E 017°11'2 3.9
2017-Dec-07 12:59N 40°29' E 017°13'0 0.0
2017-Dec-07 12:29N 40°29' E 017°13'0 0.0
2017-Dec-07 11:59N 40°29' E 017°13'0 0.0
2017-Dec-07 11:29N 40°29' E 017°13'0 0.0
2017-Dec-07 10:59N 40°29' E 017°13'0 0.0
2017-Dec-07 10:28N 40°29' E 017°13'0 0.0
2017-Dec-07 09:58N 40°29' E 017°13'0 0.0
2017-Dec-07 09:28N 40°29' E 017°13'0 0.0
2017-Dec-07 08:58N 40°29' E 017°13'0 0.2
2017-Dec-07 08:31N 40°29' E 017°13'3 5.0
2017-Dec-07 08:00N 40°26' E 017°15'1 2.9
2017-Dec-07 07:30N 40°28' E 017°14'1 2.3
2017-Dec-07 07:00N 40°29' E 017°13'0 0.0
2017-Dec-07 06:30N 40°29' E 017°13'0 0.0
2017-Dec-07 06:00N 40°29' E 017°13'0 0.0
2017-Dec-07 05:27N 40°29' E 017°13'0 0.0
2017-Dec-07 05:00N 40°29' E 017°13'0 0.0
2017-Dec-07 04:27N 40°29' E 017°13'0 0.0
2017-Dec-07 04:00N 40°29' E 017°13'0 0.0
2017-Dec-07 03:30N 40°29' E 017°13'0 0.0
2017-Dec-07 03:00N 40°29' E 017°13'0 0.0
2017-Dec-07 02:30N 40°29' E 017°13'0 0.0
2017-Dec-07 02:00N 40°29' E 017°13'0 0.0
2017-Dec-07 01:30N 40°29' E 017°13'0 0.0
2017-Dec-07 01:00N 40°29' E 017°13'0 0.0
2017-Dec-07 00:30N 40°29' E 017°13'0 0.0
2017-Dec-07 00:00N 40°29' E 017°13'0 0.0
2017-Dec-06 23:30N 40°29' E 017°13'0 0.0
2017-Dec-06 23:00N 40°29' E 017°13'0 0.0
2017-Dec-06 22:30N 40°29' E 017°13'0 0.0
2017-Dec-06 21:57N 40°29' E 017°13'0 0.0
2017-Dec-06 21:30N 40°29' E 017°13'0 0.0
2017-Dec-06 20:57N 40°29' E 017°13'  
Track history (hours):
 
Tides and Currents Weather Stations Pressure Air Temp Water Temp Dewpoint Dewpoint Depression Visibility Wind Speed Wind Dir Waves Ship Positions

Capo S. Vito

Last reported at 2017-Dec-16 11:00 UTC. Time now 2017-Dec-16 11:18 UTC.
Position N 40°29' E 017°13'.

Length 28 m; draft 5.1 m.

Type: Tug. MMSI: 247297700.

Date/timePositionNaut miles runAvg speedWind from/ knotsBaromVisibWave heightAir tempDewpointWater temp
2017-Dec-16 11:00N 40°29' E 017°13'1 1.1
2017-Dec-16 10:28N 40°29' E 017°12'1 1.8
2017-Dec-16 10:00N 40°28' E 017°13'1 1.4
2017-Dec-16 09:30N 40°27' E 017°13'2 3.1
2017-Dec-16 08:59N 40°27' E 017°15'3 5.3
2017-Dec-16 08:30N 40°29' E 017°13'0 0.0
2017-Dec-16 08:00N 40°29' E 017°13'0 0.0
2017-Dec-16 07:30N 40°29' E 017°13'0 0.0
2017-Dec-16 07:00N 40°29' E 017°13'0 0.0
2017-Dec-16 06:30N 40°29' E 017°13'0 0.0
2017-Dec-16 06:00N 40°29' E 017°13'0 0.0
2017-Dec-16 05:30N 40°29' E 017°13'0 0.0
2017-Dec-16 05:00N 40°29' E 017°13'0 0.0
2017-Dec-16 04:30N 40°29' E 017°13'0 0.0
2017-Dec-16 04:00N 40°29' E 017°13'0 0.0
2017-Dec-16 03:30N 40°29' E 017°13'0 0.0
2017-Dec-16 03:00N 40°29' E 017°13'0 0.0
2017-Dec-16 02:30N 40°29' E 017°13'0 0.0
2017-Dec-16 02:00N 40°29' E 017°13'0 0.0
2017-Dec-16 01:30N 40°29' E 017°13'0 0.0
2017-Dec-16 01:00N 40°29' E 017°13'0 0.0
2017-Dec-16 00:30N 40°29' E 017°13'0 0.0
2017-Dec-16 00:00N 40°29' E 017°13'0 0.0
2017-Dec-15 23:30N 40°29' E 017°13'0 0.0
2017-Dec-15 23:00N 40°29' E 017°13'0 0.0
2017-Dec-15 22:30N 40°29' E 017°13'2 5.0
2017-Dec-15 22:00N 40°27' E 017°15'1 2.0
2017-Dec-15 21:30N 40°27' E 017°14'1 1.9
2017-Dec-15 20:58N 40°27' E 017°15'0 0.8
2017-Dec-15 20:29N 40°27' E 017°14'1 1.6
2017-Dec-15 20:00N 40°27' E 017°14'2 2.7
2017-Dec-15 19:28N 40°29' E 017°13'0 0.0
2017-Dec-15 18:58N 40°29' E 017°13'0 0.0
2017-Dec-15 18:28N 40°29' E 017°13'0 0.0
2017-Dec-15 17:58N 40°29' E 017°13'0 0.0
2017-Dec-15 17:28N 40°29' E 017°13'0 0.0
2017-Dec-15 16:55N 40°29' E 017°13'0 0.0
2017-Dec-15 16:25N 40°29' E 017°13'2 4.4
2017-Dec-15 16:00N 40°28' E 017°11'2 3.8
2017-Dec-15 15:29N 40°30' E 017°09'0 0.8
2017-Dec-15 14:59N 40°30' E 017°08'0 0.5
2017-Dec-15 14:23N 40°29' E 017°09'2 6.6
2017-Dec-15 14:00N 40°28' E 017°12'1 2.4
2017-Dec-15 13:27N 40°29' E 017°13'0 0.0
2017-Dec-15 13:00N 40°29' E 017°13'0 0.4
2017-Dec-15 12:30N 40°29' E 017°13'0 0.3
2017-Dec-15 11:57N 40°29' E 017°13'0 0.0
2017-Dec-15 11:27N 40°29' E 017°13'0 0.0
2017-Dec-15 10:57N 40°29' E 017°13'0 0.0
2017-Dec-15 10:30N 40°29' E 017°13'0 0.0
2017-Dec-15 09:57N 40°29' E 017°13'0 0.0
2017-Dec-15 09:27N 40°29' E 017°13'0 0.0
2017-Dec-15 08:57N 40°29' E 017°13'1 1.4
2017-Dec-15 08:28N 40°29' E 017°12'0 0.1
2017-Dec-15 07:58N 40°29' E 017°12'1 1.5
2017-Dec-15 07:30N 40°28' E 017°13'1 1.2
2017-Dec-15 06:59N 40°28' E 017°13'0 0.3
2017-Dec-15 06:30N 40°27' E 017°13'1 2.3
2017-Dec-15 05:57N 40°29' E 017°13'0 0.0
2017-Dec-15 05:30N 40°29' E 017°13'0 0.0
2017-Dec-15 05:00N 40°29' E 017°13'0 0.0
2017-Dec-15 04:30N 40°29' E 017°13'0 0.0
2017-Dec-15 04:00N 40°29' E 017°13'0 0.0
2017-Dec-15 02:27N 40°29' E 017°13'0 0.0
2017-Dec-15 01:00N 40°29' E 017°13'0 0.0
2017-Dec-15 00:30N 40°29' E 017°13'0 0.0
2017-Dec-14 18:28N 40°29' E 017°13'3 5.2
2017-Dec-14 17:58N 40°27' E 017°15'1 2.0
2017-Dec-14 17:30N 40°27' E 017°14'1 1.8
2017-Dec-14 17:00N 40°27' E 017°15'0 0.5
2017-Dec-14 16:30N 40°27' E 017°15'2 3.2
2017-Dec-14 16:00N 40°28' E 017°14'1 0.7
2017-Dec-14 14:57N 40°29' E 017°13'2 3.5
2017-Dec-14 14:30N 40°27' E 017°13'0 0.2
2017-Dec-14 14:00N 40°27' E 017°12'1 1.9
2017-Dec-14 13:30N 40°28' E 017°13'1 1.4
2017-Dec-14 12:58N 40°29' E 017°13'0 0.0
2017-Dec-14 12:28N 40°29' E 017°13'0 0.5
2017-Dec-14 12:00N 40°29' E 017°13'0 0.0
2017-Dec-14 11:30N 40°29' E 017°13'0 0.0
2017-Dec-14 11:00N 40°29' E 017°13'0 0.1
2017-Dec-14 10:30N 40°29' E 017°13'0 0.4
2017-Dec-14 09:58N 40°29' E 017°13'0 0.0
2017-Dec-14 09:28N 40°29' E 017°13'0 0.0
2017-Dec-14 08:58N 40°29' E 017°13'0 0.5
2017-Dec-14 08:28N 40°29' E 017°13'0 0.6
2017-Dec-14 07:58N 40°28' E 017°13'1 1.2
2017-Dec-14 07:29N 40°28' E 017°14'1 1.5
2017-Dec-14 06:56N 40°29' E 017°13'0 0.4
2017-Dec-14 06:27N 40°29' E 017°13'0 0.0
2017-Dec-14 06:00N 40°29' E 017°13'0 0.0
2017-Dec-14 05:27N 40°29' E 017°13'0 0.0
2017-Dec-14 05:00N 40°29' E 017°13'0 0.0
2017-Dec-14 04:30N 40°29' E 017°13'0 0.0
2017-Dec-14 04:00N 40°29' E 017°13'0 0.0
2017-Dec-14 03:30N 40°29' E 017°13'0 0.0
2017-Dec-14 03:00N 40°29' E 017°13'0 0.0
2017-Dec-14 02:30N 40°29' E 017°13'0 0.0
2017-Dec-14 01:57N 40°29' E 017°13'0 0.0
2017-Dec-14 01:30N 40°29' E 017°13'0 0.0
2017-Dec-14 01:00N 40°29' E 017°13'0 0.0
2017-Dec-14 00:30N 40°29' E 017°13'0 0.0
2017-Dec-14 00:00N 40°29' E 017°13'0 0.0
2017-Dec-13 23:30N 40°29' E 017°13'0 0.0
2017-Dec-13 23:00N 40°29' E 017°13'0 0.0
2017-Dec-13 22:30N 40°29' E 017°13'0 0.0
2017-Dec-13 22:00N 40°29' E 017°13'0 0.0
2017-Dec-13 21:30N 40°29' E 017°13'0 0.0
2017-Dec-13 21:00N 40°29' E 017°13'0 0.0
2017-Dec-13 20:30N 40°29' E 017°13'0 0.0
2017-Dec-13 20:00N 40°29' E 017°13'0 0.0
2017-Dec-13 19:30N 40°29' E 017°13'0 0.0
2017-Dec-13 19:00N 40°29' E 017°13'0 0.0
2017-Dec-13 18:30N 40°29' E 017°13'0 0.0
2017-Dec-13 18:00N 40°29' E 017°13'0 0.0
2017-Dec-13 17:27N 40°29' E 017°13'0 0.0
2017-Dec-13 17:00N 40°29' E 017°13'0 0.0
2017-Dec-13 16:27N 40°29' E 017°13'0 0.0
2017-Dec-13 15:59N 40°29' E 017°13'0 0.0
2017-Dec-13 15:29N 40°29' E 017°13'0 0.0
2017-Dec-13 14:59N 40°29' E 017°13'2 3.3
2017-Dec-13 14:30N 40°27' E 017°13'0 0.3
2017-Dec-13 13:55N 40°27' E 017°12'0 0.0
2017-Dec-13 13:25N 40°27' E 017°12'0 0.9
2017-Dec-13 12:55N 40°27' E 017°12'1 3.6
2017-Dec-13 12:30N 40°28' E 017°13'1 1.1
2017-Dec-13 11:59N 40°29' E 017°13'0 0.0
2017-Dec-13 11:26N 40°29' E 017°13'0 0.0
2017-Dec-13 10:56N 40°29' E 017°13'1 2.5
2017-Dec-13 10:30N 40°28' E 017°12'1 1.0
2017-Dec-13 09:56N 40°28' E 017°12'1 1.5
2017-Dec-13 09:28N 40°28' E 017°12'1 1.6
2017-Dec-13 09:00N 40°28' E 017°12'1 1.7
2017-Dec-13 08:30N 40°28' E 017°12'1 1.7
2017-Dec-13 08:00N 40°28' E 017°13'1 1.7
2017-Dec-13 07:25N 40°29' E 017°13'0 0.0
2017-Dec-13 06:58N 40°29' E 017°13'0 0.0
2017-Dec-13 06:28N 40°29' E 017°13'0 0.0
2017-Dec-13 05:58N 40°29' E 017°13'0 0.0
2017-Dec-13 05:28N 40°29' E 017°13'0 0.0
2017-Dec-13 04:58N 40°29' E 017°13'0 0.0
2017-Dec-13 04:28N 40°29' E 017°13'0 0.0
2017-Dec-13 03:58N 40°29' E 017°13'0 0.0
2017-Dec-13 03:28N 40°29' E 017°13'0 0.0
2017-Dec-13 02:58N 40°29' E 017°13'0 0.0
2017-Dec-13 02:28N 40°29' E 017°13'0 0.0
2017-Dec-13 01:58N 40°29' E 017°13'0 0.0
2017-Dec-13 01:28N 40°29' E 017°13'0 0.0
2017-Dec-13 00:58N 40°29' E 017°13'0 0.0
2017-Dec-13 00:28N 40°29' E 017°13'0 0.0
2017-Dec-12 23:58N 40°29' E 017°13'0 0.0
2017-Dec-12 23:28N 40°29' E 017°13'0 0.0
2017-Dec-12 22:58N 40°29' E 017°13'0 0.0
2017-Dec-12 22:28N 40°29' E 017°13'0 0.0
2017-Dec-12 21:58N 40°29' E 017°13'0 0.0
2017-Dec-12 21:28N 40°29' E 017°13'0 0.0
2017-Dec-12 20:58N 40°29' E 017°13'0 0.0
2017-Dec-12 20:28N 40°29' E 017°13'0 0.0
2017-Dec-12 19:58N 40°29' E 017°13'0 0.0
2017-Dec-12 19:28N 40°29' E 017°13'0 0.0
2017-Dec-12 18:58N 40°29' E 017°13'0 0.0
2017-Dec-12 18:25N 40°29' E 017°13'0 0.0
2017-Dec-12 17:58N 40°29' E 017°13'0 0.0
2017-Dec-12 17:28N 40°29' E 017°13'0 0.0
2017-Dec-12 16:55N 40°29' E 017°13'0 0.0
2017-Dec-12 16:25N 40°29' E 017°13'0 0.0
2017-Dec-12 15:59N 40°29' E 017°13'0 0.5
2017-Dec-12 15:25N 40°28' E 017°13'1 1.7
2017-Dec-12 15:01N 40°28' E 017°14'0 0.2
2017-Dec-12 14:30N 40°28' E 017°14'0 0.7
2017-Dec-12 14:00N 40°28' E 017°13'0 0.9
2017-Dec-12 13:27N 40°28' E 017°13'0 0.5
2017-Dec-12 12:57N 40°29' E 017°13'0 0.0
2017-Dec-12 12:27N 40°29' E 017°13'0 0.0
2017-Dec-12 11:57N 40°29' E 017°13'0 0.0
2017-Dec-12 11:27N 40°29' E 017°13'0 0.0
2017-Dec-12 10:57N 40°29' E 017°13'0 0.0
2017-Dec-12 10:27N 40°29' E 017°13'0 0.0
2017-Dec-12 09:57N 40°29' E 017°13'0 0.0
2017-Dec-12 09:27N 40°29' E 017°13'0 0.0
2017-Dec-12 08:57N 40°29' E 017°13'0 0.0
2017-Dec-12 08:30N 40°29' E 017°13'3 4.5
2017-Dec-12 07:55N 40°27' E 017°15'1 2.8
2017-Dec-12 07:30N 40°27' E 017°14'0 0.3
2017-Dec-12 07:00N 40°27' E 017°14'0 0.6
2017-Dec-12 06:30N 40°27' E 017°14'2 3.9
2017-Dec-12 06:00N 40°29' E 017°13'0 0.0
2017-Dec-12 05:30N 40°29' E 017°13'0 0.0
2017-Dec-12 04:57N 40°29' E 017°13'0 0.0
2017-Dec-12 04:30N 40°29' E 017°13'0 0.0
2017-Dec-12 04:00N 40°29' E 017°13'0 0.0
2017-Dec-12 03:30N 40°29' E 017°13'0 0.0
2017-Dec-12 03:00N 40°29' E 017°13'0 0.0
2017-Dec-12 02:30N 40°29' E 017°13'0 0.0
2017-Dec-12 02:00N 40°29' E 017°13'0 0.0
2017-Dec-12 01:30N 40°29' E 017°13'0 0.0
2017-Dec-12 01:00N 40°29' E 017°13'0 0.0
2017-Dec-12 00:30N 40°29' E 017°13'0 0.0
2017-Dec-12 00:00N 40°29' E 017°13'0 0.0
2017-Dec-11 23:30N 40°29' E 017°13'0 0.0
2017-Dec-11 22:57N 40°29' E 017°13'0 0.0
2017-Dec-11 22:27N 40°29' E 017°13'0 0.0
2017-Dec-11 22:00N 40°29' E 017°13'0 0.0
2017-Dec-11 21:30N 40°29' E 017°13'0 0.0
2017-Dec-11 21:00N 40°29' E 017°13'0 0.0
2017-Dec-11 20:27N 40°29' E 017°13'0 0.0
2017-Dec-11 20:00N 40°29' E 017°13'0 0.0
2017-Dec-11 19:30N 40°29' E 017°13'0 0.0
2017-Dec-11 19:00N 40°29' E 017°13'0 0.0
2017-Dec-11 18:30N 40°29' E 017°13'0 0.0
2017-Dec-11 18:00N 40°29' E 017°13'0 0.0
2017-Dec-11 17:30N 40°29' E 017°13'0 0.0
2017-Dec-11 17:00N 40°29' E 017°13'0 0.0
2017-Dec-11 16:30N 40°29' E 017°13'0 0.0
2017-Dec-11 16:00N 40°29' E 017°13'2 4.9
2017-Dec-11 15:30N 40°29' E 017°10'1 2.6
2017-Dec-11 15:00N 40°30' E 017°10'3 6.3
2017-Dec-11 14:30N 40°28' E 017°13'1 1.9
2017-Dec-11 13:58N 40°29' E 017°13'0 0.0
2017-Dec-11 13:25N 40°29' E 017°13'0 1.1
2017-Dec-11 13:00N 40°28' E 017°13'4 7.1
2017-Dec-11 12:30N 40°30' E 017°09'0 0.5
2017-Dec-11 11:58N 40°30' E 017°09'0 0.3
2017-Dec-11 11:29N 40°30' E 017°09'3 7.1
2017-Dec-11 11:00N 40°28' E 017°13'1 1.3
2017-Dec-11 10:28N 40°29' E 017°13'0 0.0
2017-Dec-11 09:58N 40°29' E 017°13'0 0.0
2017-Dec-11 09:28N 40°29' E 017°13'0 0.0
2017-Dec-11 08:58N 40°29' E 017°13'0 0.0
2017-Dec-11 08:28N 40°29' E 017°13'0 0.0
2017-Dec-11 07:58N 40°29' E 017°13'0 0.0
2017-Dec-11 07:28N 40°29' E 017°13'0 0.0
2017-Dec-11 06:58N 40°29' E 017°13'0 0.0
2017-Dec-11 06:28N 40°29' E 017°13'0 0.0
2017-Dec-11 05:58N 40°29' E 017°13'0 0.0
2017-Dec-11 05:28N 40°29' E 017°13'0 0.0
2017-Dec-11 04:58N 40°29' E 017°13'0 0.0
2017-Dec-11 04:28N 40°29' E 017°13'0 0.0
2017-Dec-11 03:58N 40°29' E 017°13'0 0.0
2017-Dec-11 03:28N 40°29' E 017°13'0 0.0
2017-Dec-11 02:58N 40°29' E 017°13'0 0.0
2017-Dec-11 02:28N 40°29' E 017°13'0 0.0
2017-Dec-11 01:58N 40°29' E 017°13'0 0.0
2017-Dec-11 01:28N 40°29' E 017°13'0 0.0
2017-Dec-11 00:58N 40°29' E 017°13'0 0.0
2017-Dec-11 00:28N 40°29' E 017°13'0 0.0
2017-Dec-10 23:58N 40°29' E 017°13'0 0.0
2017-Dec-10 23:28N 40°29' E 017°13'0 0.0
2017-Dec-10 22:58N 40°29' E 017°13'0 0.0
2017-Dec-10 22:28N 40°29' E 017°13'0 0.0
2017-Dec-10 21:58N 40°29' E 017°13'0 0.0
2017-Dec-10 21:28N 40°29' E 017°13'0 0.0
2017-Dec-10 20:58N 40°29' E 017°13'0 0.0
2017-Dec-10 20:28N 40°29' E 017°13'0 0.0
2017-Dec-10 19:58N 40°29' E 017°13'0 0.0
2017-Dec-10 19:28N 40°29' E 017°13'0 0.0
2017-Dec-10 18:58N 40°29' E 017°13'0 0.0
2017-Dec-10 18:28N 40°29' E 017°13'0 0.0
2017-Dec-10 17:58N 40°29' E 017°13'0 0.0
2017-Dec-10 17:28N 40°29' E 017°13'0 0.0
2017-Dec-10 16:58N 40°29' E 017°13'0 0.0
2017-Dec-10 16:28N 40°29' E 017°13'0 0.0
2017-Dec-10 15:58N 40°29' E 017°13'0 0.0
2017-Dec-10 15:28N 40°29' E 017°13'0 0.0
2017-Dec-10 14:58N 40°29' E 017°13'0 0.0
2017-Dec-10 14:28N 40°29' E 017°13'0 0.0
2017-Dec-10 13:58N 40°29' E 017°13'0 0.0
2017-Dec-10 13:28N 40°29' E 017°13'0 0.0
2017-Dec-10 12:58N 40°29' E 017°13'0 0.0
2017-Dec-10 12:28N 40°29' E 017°13'0 0.0
2017-Dec-10 11:58N 40°29' E 017°13'0 0.0
2017-Dec-10 11:28N 40°29' E 017°13'0 0.0
2017-Dec-10 10:58N 40°29' E 017°13'0 0.0
2017-Dec-10 10:28N 40°29' E 017°13'0 0.0
2017-Dec-10 09:58N 40°29' E 017°13'0 0.0
2017-Dec-10 09:28N 40°29' E 017°13'0 0.0
2017-Dec-10 08:58N 40°29' E 017°13'0 0.0
2017-Dec-10 08:28N 40°29' E 017°13'0 0.0
2017-Dec-10 07:58N 40°29' E 017°13'0 0.0
2017-Dec-10 07:28N 40°29' E 017°13'0 0.0
2017-Dec-10 06:58N 40°29' E 017°13'0 0.0
2017-Dec-10 06:28N 40°29' E 017°13'0 0.0
2017-Dec-10 05:58N 40°29' E 017°13'0 0.0
2017-Dec-10 05:28N 40°29' E 017°13'0 0.0
2017-Dec-10 04:58N 40°29' E 017°13'0 0.0
2017-Dec-10 04:28N 40°29' E 017°13'0 0.0
2017-Dec-10 03:58N 40°29' E 017°13'0 0.0
2017-Dec-10 03:28N 40°29' E 017°13'0 0.0
2017-Dec-10 02:58N 40°29' E 017°13'0 0.0
2017-Dec-10 02:28N 40°29' E 017°13'0 0.0
2017-Dec-10 01:58N 40°29' E 017°13'0 0.0
2017-Dec-10 01:25N 40°29' E 017°13'0 0.0
2017-Dec-10 00:58N 40°29' E 017°13'0 0.0
2017-Dec-10 00:28N 40°29' E 017°13'0 0.0
2017-Dec-09 23:58N 40°29' E 017°13'0 0.0
2017-Dec-09 23:28N 40°29' E 017°13'0 0.0
2017-Dec-09 22:58N 40°29' E 017°13'0 0.0
2017-Dec-09 22:28N 40°29' E 017°13'0 0.0
2017-Dec-09 21:58N 40°29' E 017°13'0 0.0
2017-Dec-09 21:28N 40°29' E 017°13'0 0.0
2017-Dec-09 20:58N 40°29' E 017°13'0 0.0
2017-Dec-09 20:28N 40°29' E 017°13'0 0.0
2017-Dec-09 19:58N 40°29' E 017°13'0 0.0
2017-Dec-09 19:28N 40°29' E 017°13'0 0.0
2017-Dec-09 18:58N 40°29' E 017°13'0 0.0
2017-Dec-09 18:28N 40°29' E 017°13'0 0.0
2017-Dec-09 17:58N 40°29' E 017°13'0 0.0
2017-Dec-09 17:28N 40°29' E 017°13'0 0.0
2017-Dec-09 16:58N 40°29' E 017°13'0 0.0
2017-Dec-09 16:28N 40°29' E 017°13'0 0.0
2017-Dec-09 15:58N 40°29' E 017°13'0 0.0
2017-Dec-09 15:25N 40°29' E 017°13'0 0.0
2017-Dec-09 14:58N 40°29' E 017°13'0 0.0
2017-Dec-09 14:28N 40°29' E 017°13'0 0.0
2017-Dec-09 13:58N 40°29' E 017°13'0 0.0
2017-Dec-09 13:28N 40°29' E 017°13'0 0.0
2017-Dec-09 12:58N 40°29' E 017°13'0 0.0
2017-Dec-09 12:28N 40°29' E 017°13'0 0.0
2017-Dec-09 11:58N 40°29' E 017°13'0 0.8
2017-Dec-09 11:27N 40°28' E 017°13'1 3.2
2017-Dec-09 11:00N 40°27' E 017°12'1 1.4
2017-Dec-09 10:29N 40°27' E 017°11'2 3.5
2017-Dec-09 09:58N 40°28' E 017°13'0 0.9
2017-Dec-09 09:30N 40°29' E 017°13'0 0.0
2017-Dec-09 09:00N 40°29' E 017°13'0 0.0
2017-Dec-09 08:30N 40°29' E 017°13'0 0.0
2017-Dec-09 08:00N 40°29' E 017°13'0 0.0
2017-Dec-09 07:30N 40°29' E 017°13'0 0.0
2017-Dec-09 07:00N 40°29' E 017°13'0 0.0
2017-Dec-09 06:30N 40°29' E 017°13'0 0.0
2017-Dec-09 05:59N 40°29' E 017°13'0 0.0
2017-Dec-09 05:29N 40°29' E 017°13'0 0.0
2017-Dec-09 04:59N 40°29' E 017°13'0 0.0
2017-Dec-09 04:29N 40°29' E 017°13'0 0.0
2017-Dec-09 03:59N 40°29' E 017°13'0 0.0
2017-Dec-09 03:29N 40°29' E 017°13'0 0.0
2017-Dec-09 02:59N 40°29' E 017°13'0 0.0
2017-Dec-09 02:26N 40°29' E 017°13'0 0.0
2017-Dec-09 01:59N 40°29' E 017°13'0 0.0
2017-Dec-09 01:29N 40°29' E 017°13'0 0.0
2017-Dec-09 00:59N 40°29' E 017°13'0 0.0
2017-Dec-09 00:29N 40°29' E 017°13'0 0.0
2017-Dec-08 23:59N 40°29' E 017°13'0 0.0
2017-Dec-08 23:29N 40°29' E 017°13'0 0.0
2017-Dec-08 22:59N 40°29' E 017°13'1 2.7
2017-Dec-08 22:29N 40°28' E 017°12'0 0.2
2017-Dec-08 22:00N 40°28' E 017°12'0 0.0
2017-Dec-08 21:28N 40°28' E 017°12'0 0.0
2017-Dec-08 20:58N 40°28' E 017°12'0 0.1
2017-Dec-08 20:29N 40°28' E 017°12'1 2.0
2017-Dec-08 19:51N 40°29' E 017°13'0 0.0
2017-Dec-08 19:30N 40°29' E 017°13'0 0.0
2017-Dec-08 19:00N 40°29' E 017°13'0 0.0
2017-Dec-08 18:30N 40°29' E 017°13'0 0.0
2017-Dec-08 18:00N 40°29' E 017°13'0 0.0
2017-Dec-08 17:27N 40°29' E 017°13'0 0.0
2017-Dec-08 16:54N 40°29' E 017°13'0 0.0
2017-Dec-08 16:30N 40°29' E 017°13'0 0.0
2017-Dec-08 15:57N 40°29' E 017°13'0 0.0
2017-Dec-08 15:27N 40°29' E 017°13'0 0.0
2017-Dec-08 14:57N 40°29' E 017°13'0 0.0
2017-Dec-08 14:27N 40°29' E 017°13'0 0.0
2017-Dec-08 14:00N 40°29' E 017°13'0 0.0
2017-Dec-08 13:30N 40°29' E 017°13'0 0.0
2017-Dec-08 13:00N 40°29' E 017°13'0 0.0
2017-Dec-08 12:30N 40°29' E 017°13'0 0.0
2017-Dec-08 11:57N 40°29' E 017°13'0 0.0
2017-Dec-08 11:30N 40°29' E 017°13'0 0.0
2017-Dec-08 11:00N 40°29' E 017°13'0 0.0
2017-Dec-08 10:30N 40°29' E 017°13'1 2.5
2017-Dec-08 10:00N 40°28' E 017°12'1 1.0
2017-Dec-08 09:29N 40°28' E 017°12'2 3.6
2017-Dec-08 09:00N 40°27' E 017°13'2 3.1
2017-Dec-08 08:30N 40°27' E 017°15'1 2.0
2017-Dec-08 08:00N 40°27' E 017°14'1 1.1
2017-Dec-08 07:25N 40°27' E 017°13'1 3.6
2017-Dec-08 07:00N 40°29' E 017°13'0 0.0
2017-Dec-08 06:30N 40°29' E 017°13'0 0.0
2017-Dec-08 06:00N 40°29' E 017°13'0 0.0
2017-Dec-08 05:30N 40°29' E 017°13'0 0.0
2017-Dec-08 05:00N 40°29' E 017°13'0 0.0
2017-Dec-08 04:30N 40°29' E 017°13'0 0.0
2017-Dec-08 04:00N 40°29' E 017°13'0 0.0
2017-Dec-08 03:30N 40°29' E 017°13'0 0.0
2017-Dec-08 03:00N 40°29' E 017°13'0 0.0
2017-Dec-08 02:30N 40°29' E 017°13'0 0.0
2017-Dec-08 02:00N 40°29' E 017°13'0 0.0
2017-Dec-08 01:30N 40°29' E 017°13'0 0.0
2017-Dec-08 01:00N 40°29' E 017°13'0 0.0
2017-Dec-08 00:30N 40°29' E 017°13'0 0.7
2017-Dec-08 00:00N 40°28' E 017°13'3 5.8
2017-Dec-07 23:26N 40°30' E 017°10'0 0.2
2017-Dec-07 23:00N 40°30' E 017°09'1 1.6
2017-Dec-07 22:30N 40°29' E 017°10'3 5.2
2017-Dec-07 21:58N 40°29' E 017°13'0 0.0
2017-Dec-07 21:28N 40°29' E 017°13'0 0.0
2017-Dec-07 20:58N 40°29' E 017°13'0 0.0
2017-Dec-07 20:28N 40°29' E 017°13'0 0.0
2017-Dec-07 19:59N 40°29' E 017°13'1 2.4
2017-Dec-07 19:25N 40°28' E 017°12'1 2.5
2017-Dec-07 19:00N 40°27' E 017°12'0 0.6
2017-Dec-07 18:31N 40°28' E 017°12'2 3.1
2017-Dec-07 18:01N 40°27' E 017°14'1 1.8
2017-Dec-07 17:29N 40°26' E 017°15'1 1.3
2017-Dec-07 17:00N 40°27' E 017°14'0 0.5
2017-Dec-07 16:30N 40°27' E 017°14'2 3.8
2017-Dec-07 16:00N 40°28' E 017°12'0 0.4
2017-Dec-07 15:30N 40°28' E 017°12'1 2.3
2017-Dec-07 15:00N 40°29' E 017°10'1 1.5
2017-Dec-07 14:15N 40°29' E 017°09'1 2.2
2017-Dec-07 14:00N 40°30' E 017°10'1 2.2
2017-Dec-07 13:30N 40°29' E 017°11'2 3.9
2017-Dec-07 12:59N 40°29' E 017°13'0 0.0
2017-Dec-07 12:29N 40°29' E 017°13'0 0.0
2017-Dec-07 11:59N 40°29' E 017°13'0 0.0
2017-Dec-07 11:29N 40°29' E 017°13'0 0.0
2017-Dec-07 10:59N 40°29' E 017°13'0 0.0
2017-Dec-07 10:28N 40°29' E 017°13'0 0.0
2017-Dec-07 09:58N 40°29' E 017°13'0 0.0
2017-Dec-07 09:28N 40°29' E 017°13'0 0.0
2017-Dec-07 08:58N 40°29' E 017°13'0 0.2
2017-Dec-07 08:31N 40°29' E 017°13'3 5.0
2017-Dec-07 08:00N 40°26' E 017°15'1 2.9
2017-Dec-07 07:30N 40°28' E 017°14'1 2.3
2017-Dec-07 07:00N 40°29' E 017°13'0 0.0
2017-Dec-07 06:30N 40°29' E 017°13'0 0.0
2017-Dec-07 06:00N 40°29' E 017°13'0 0.0
2017-Dec-07 05:27N 40°29' E 017°13'0 0.0
2017-Dec-07 05:00N 40°29' E 017°13'0 0.0
2017-Dec-07 04:27N 40°29' E 017°13'0 0.0
2017-Dec-07 04:00N 40°29' E 017°13'0 0.0
2017-Dec-07 03:30N 40°29' E 017°13'0 0.0
2017-Dec-07 03:00N 40°29' E 017°13'0 0.0
2017-Dec-07 02:30N 40°29' E 017°13'0 0.0
2017-Dec-07 02:00N 40°29' E 017°13'0 0.0
2017-Dec-07 01:30N 40°29' E 017°13'0 0.0
2017-Dec-07 01:00N 40°29' E 017°13'0 0.0
2017-Dec-07 00:30N 40°29' E 017°13'0 0.0
2017-Dec-07 00:00N 40°29' E 017°13'0 0.0
2017-Dec-06 23:30N 40°29' E 017°13'0 0.0
2017-Dec-06 23:00N 40°29' E 017°13'0 0.0
2017-Dec-06 22:30N 40°29' E 017°13'0 0.0
2017-Dec-06 21:57N 40°29' E 017°13'0 0.0
2017-Dec-06 21:30N 40°29' E 017°13'0 0.0
2017-Dec-06 20:57N 40°29' E 017°13'  

Dump ship's entire track history